Time;durP1;ratioP1;P1;durP2;ratioP2;P2;SDS_P1;SDS_P2;PMS_P1;PMS_P2;Temp;Humidity;BMP_temperature;BMP_pressure;BME280_temperature;BME280_humidity;BME280_pressure;Samples;Min_cycle;Max_cycle;Signal;HPM_P1;HPM_P2
2023/08/29 00:00:43;;;;;;;6.15;4.43;;;;;;;13.74;58.44;98990.59;5117158;27;20034;-71
2023/08/29 00:03:08;;;;;;;8.52;4.00;;;;;;;13.64;59.00;99000.50;5117275;27;20058;-71
2023/08/29 00:05:33;;;;;;;7.32;3.50;;;;;;;13.62;59.40;99023.91;5098129;27;20831;-69
2023/08/29 00:07:58;;;;;;;5.80;3.60;;;;;;;13.60;59.51;98994.59;5116940;27;20051;-67
2023/08/29 00:10:24;;;;;;;9.80;4.97;;;;;;;13.61;59.87;99023.06;5116968;27;20050;-72
2023/08/29 00:12:49;;;;;;;7.05;3.92;;;;;;;13.73;59.26;98999.63;5117266;27;20050;-67
2023/08/29 00:15:14;;;;;;;5.35;3.63;;;;;;;13.69;59.11;99008.94;5117106;27;20046;-69
2023/08/29 00:17:39;;;;;;;7.45;4.80;;;;;;;13.76;58.74;99020.78;5115659;27;20042;-71
2023/08/29 00:20:05;;;;;;;8.82;4.07;;;;;;;13.69;59.11;99003.56;5117033;27;20045;-68
2023/08/29 00:22:32;;;;;;;5.82;4.00;;;;;;;13.79;58.66;98994.53;5116882;27;20050;-68
2023/08/29 00:24:58;;;;;;;5.93;3.72;;;;;;;13.67;59.11;98993.00;5117158;27;20038;-71
2023/08/29 00:27:23;;;;;;;11.77;4.47;;;;;;;13.78;59.13;99019.63;5097380;27;20054;-68
2023/08/29 00:29:48;;;;;;;5.38;3.42;;;;;;;13.76;58.87;99004.72;5116235;27;20046;-68
2023/08/29 00:32:14;;;;;;;9.18;4.70;;;;;;;13.73;58.74;99002.31;5116398;27;20042;-69
2023/08/29 00:34:41;;;;;;;5.90;4.00;;;;;;;13.60;59.31;99007.97;5098544;27;20039;-72
2023/08/29 00:37:06;;;;;;;7.40;4.03;;;;;;;13.60;59.83;99015.16;5091825;27;20043;-70
2023/08/29 00:39:32;;;;;;;9.00;3.83;;;;;;;13.68;59.96;99002.72;5093650;27;20405;-70
2023/08/29 00:41:58;;;;;;;5.32;4.10;;;;;;;13.62;59.68;98989.09;5094627;27;20810;-69
2023/08/29 00:44:23;;;;;;;4.85;3.72;;;;;;;13.64;59.90;98992.47;5096014;27;20047;-69
2023/08/29 00:46:49;;;;;;;15.23;5.20;;;;;;;13.69;59.67;98987.50;5080798;27;20049;-70
2023/08/29 00:49:17;;;;;;;9.90;3.95;;;;;;;13.73;59.12;98983.56;5094293;27;20496;-72
2023/08/29 00:51:43;;;;;;;5.15;3.10;;;;;;;13.68;59.10;98975.94;5097483;27;20046;-72
2023/08/29 00:54:08;;;;;;;6.15;3.50;;;;;;;13.64;58.70;98955.81;5079422;27;20045;-72
2023/08/29 00:56:35;;;;;;;6.60;3.45;;;;;;;13.61;59.03;98974.00;5096815;27;20500;-72
2023/08/29 00:59:02;;;;;;;7.03;4.00;;;;;;;13.61;59.11;98947.22;5097565;27;20037;-72
2023/08/29 01:01:28;;;;;;;8.60;4.35;;;;;;;13.55;58.76;98980.75;5116593;27;20042;-77
2023/08/29 01:03:55;;;;;;;6.60;3.63;;;;;;;13.49;59.42;98964.44;5116224;27;20045;-72
2023/08/29 01:06:21;;;;;;;6.05;3.55;;;;;;;13.45;59.53;98969.22;5115745;27;20051;-70
2023/08/29 01:08:46;;;;;;;5.80;3.40;;;;;;;13.36;59.33;98970.94;5097929;27;20039;-77
2023/08/29 01:11:34;;;;;;;5.53;3.85;;;;;;;13.43;59.38;98966.69;5095201;27;20049;-72
2023/08/29 01:14:03;;;;;;;5.78;3.75;;;;;;;13.57;59.23;98967.25;5012114;28;20152;-79
2023/08/29 01:16:35;;;;;;;6.45;3.85;;;;;;;13.51;59.12;98973.19;5020884;28;20064;-70
2023/08/29 01:19:06;;;;;;;6.88;3.67;;;;;;;13.42;59.03;98969.53;4999098;28;20057;-72
2023/08/29 01:22:00;;;;;;;6.10;3.22;;;;;;;13.51;59.12;98983.91;5015821;28;20048;-72
2023/08/29 01:24:49;;;;;;;3.47;3.17;;;;;;;13.55;59.06;99001.34;5032447;28;20049;-72
2023/08/29 01:27:17;;;;;;;5.22;3.33;;;;;;;13.39;59.52;98992.09;5013736;28;20200;-71
2023/08/29 01:29:43;;;;;;;6.35;3.78;;;;;;;13.41;59.22;99006.19;5015801;28;20383;-71
2023/08/29 01:32:09;;;;;;;6.22;3.40;;;;;;;13.47;58.99;98998.56;5018254;28;20052;-77
2023/08/29 01:34:35;;;;;;;5.20;3.60;;;;;;;13.40;59.91;98993.78;5030884;28;20048;-77
2023/08/29 01:37:00;;;;;;;8.27;3.95;;;;;;;13.47;59.74;98995.88;5016266;28;20043;-74
2023/08/29 01:39:25;;;;;;;5.35;3.47;;;;;;;13.51;59.67;98982.06;5033021;28;20510;-78
2023/08/29 01:41:51;;;;;;;6.18;3.70;;;;;;;13.58;59.82;98990.34;4982827;28;20052;-78
2023/08/29 01:44:16;;;;;;;6.00;3.90;;;;;;;13.49;59.20;98994.75;5000121;28;20060;-69
2023/08/29 01:46:41;;;;;;;6.28;3.72;;;;;;;13.48;59.68;99016.31;5032066;28;20107;-69
2023/08/29 01:49:07;;;;;;;4.60;3.35;;;;;;;13.48;59.76;98987.69;4998852;28;20056;-68
2023/08/29 01:51:32;;;;;;;7.90;3.85;;;;;;;13.48;60.28;99000.25;5064532;28;20071;-68
2023/08/29 01:53:58;;;;;;;4.93;3.38;;;;;;;13.51;60.57;99026.75;5081068;27;20045;-71
2023/08/29 01:56:27;;;;;;;5.82;3.78;;;;;;;13.64;60.01;99016.56;5113953;27;20035;-70
2023/08/29 01:58:54;;;;;;;8.77;4.18;;;;;;;13.71;59.61;98990.88;5096718;27;20038;-69
2023/08/29 02:01:20;;;;;;;5.88;3.75;;;;;;;13.64;59.55;98995.16;5114355;27;20045;-70
2023/08/29 02:03:45;;;;;;;6.47;3.40;;;;;;;13.68;59.49;98986.66;5112288;27;20042;-68
2023/08/29 02:06:10;;;;;;;6.20;4.03;;;;;;;13.61;60.00;98990.91;5096861;27;20045;-68
2023/08/29 02:08:36;;;;;;;5.55;3.60;;;;;;;13.66;59.49;99009.22;5118616;27;20042;-68
2023/08/29 02:11:01;;;;;;;4.78;3.60;;;;;;;13.67;59.73;98990.31;5100466;27;20034;-69
2023/08/29 02:13:26;;;;;;;6.75;4.05;;;;;;;13.63;60.23;98996.13;5118972;27;20043;-71
2023/08/29 02:16:11;;;;;;;8.30;4.03;;;;;;;13.56;60.37;98993.16;5100115;27;20045;-71
2023/08/29 02:18:37;;;;;;;6.15;4.18;;;;;;;13.63;59.62;98998.81;5065958;27;20054;-70
2023/08/29 02:21:02;;;;;;;4.63;3.35;;;;;;;13.68;59.36;98994.69;5118491;27;20127;-69
2023/08/29 02:23:27;;;;;;;6.20;3.97;;;;;;;13.61;60.24;98990.91;5082513;27;20050;-69
2023/08/29 02:26:03;;;;;;;7.60;3.80;;;;;;;13.71;59.87;98998.94;5100111;27;20488;-70
2023/08/29 02:28:37;;;;;;;7.25;4.18;;;;;;;13.76;60.27;98991.31;5100887;27;20825;-69
2023/08/29 02:31:07;;;;;;;8.18;3.90;;;;;;;13.73;60.08;99000.47;5099921;27;20513;-71
2023/08/29 02:33:34;;;;;;;4.85;3.13;;;;;;;13.77;60.16;98996.50;5081902;27;20043;-71
2023/08/29 02:35:59;;;;;;;6.05;4.18;;;;;;;13.70;60.11;98999.91;5118688;27;20034;-70
2023/08/29 02:38:25;;;;;;;7.18;5.22;;;;;;;13.74;60.35;98996.81;5083174;27;20065;-70
2023/08/29 02:40:50;;;;;;;10.73;4.45;;;;;;;13.74;60.26;98990.59;5091715;27;20497;-77
2023/08/29 02:43:16;;;;;;;7.03;4.13;;;;;;;13.78;60.12;98992.81;5065153;27;20047;-78
2023/08/29 02:45:41;;;;;;;7.72;4.22;;;;;;;13.76;60.52;98996.66;5080459;27;20042;-73
2023/08/29 02:48:06;;;;;;;7.53;4.43;;;;;;;13.77;60.42;98995.66;5085712;27;20057;-71
2023/08/29 02:50:33;;;;;;;6.90;4.30;;;;;;;13.79;59.83;99001.72;5099609;27;20043;-70
2023/08/29 02:52:58;;;;;;;5.97;4.25;;;;;;;13.83;60.81;98995.09;5117923;27;20035;-72
2023/08/29 02:55:23;;;;;;;8.85;4.53;;;;;;;13.91;59.77;98997.88;5099565;27;20035;-71
2023/08/29 02:57:49;;;;;;;4.63;3.70;;;;;;;13.80;60.23;98990.00;5117784;27;20420;-71
2023/08/29 03:00:14;;;;;;;7.78;4.15;;;;;;;13.79;60.40;98991.00;5099495;27;20030;-72
2023/08/29 03:02:40;;;;;;;8.73;4.20;;;;;;;13.81;60.82;98987.19;5117897;27;20042;-71
2023/08/29 03:05:05;;;;;;;6.35;3.88;;;;;;;13.92;61.33;98999.56;5117759;27;20046;-71
2023/08/29 03:07:31;;;;;;;6.15;3.90;;;;;;;13.98;61.08;98990.94;5074363;27;20424;-71
2023/08/29 03:09:57;;;;;;;6.55;4.20;;;;;;;14.03;61.20;98995.84;5081442;27;20042;-72
2023/08/29 03:12:22;;;;;;;4.47;3.50;;;;;;;14.12;60.23;98989.59;5118806;27;20049;-72
2023/08/29 03:14:53;;;;;;;9.45;4.30;;;;;;;14.18;59.57;98997.06;5124495;27;20046;-71
2023/08/29 03:17:20;;;;;;;8.55;4.63;;;;;;;14.14;59.77;98998.34;5113573;27;20500;-74
2023/08/29 03:19:47;;;;;;;8.95;4.55;;;;;;;14.14;60.07;98995.66;5109313;27;20073;-72
2023/08/29 03:22:13;;;;;;;8.75;4.18;;;;;;;14.15;59.62;98990.16;5086390;27;20500;-73
2023/08/29 03:24:38;;;;;;;8.07;4.60;;;;;;;14.14;59.99;98998.34;5121790;27;20051;-74
2023/08/29 03:27:04;;;;;;;8.25;4.47;;;;;;;14.13;59.39;99005.53;5103274;27;20035;-73
2023/08/29 03:29:29;;;;;;;14.70;5.18;;;;;;;14.11;59.94;99010.19;5119225;27;20038;-73
2023/08/29 03:31:54;;;;;;;4.80;3.75;;;;;;;14.26;59.41;99005.22;5099749;27;20049;-71
2023/08/29 03:34:20;;;;;;;7.80;4.43;;;;;;;14.23;59.61;99001.97;5103129;27;20396;-74
2023/08/29 03:36:45;;;;;;;10.55;4.35;;;;;;;14.18;59.29;98962.22;5065563;27;20661;-73
2023/08/29 03:39:11;;;;;;;8.23;4.03;;;;;;;14.11;60.16;99020.91;5117917;27;20039;-74
2023/08/29 03:41:38;;;;;;;6.90;4.50;;;;;;;14.08;60.72;98999.78;5081033;27;20046;-73
2023/08/29 03:44:04;;;;;;;6.30;4.32;;;;;;;14.15;60.36;99002.72;5117377;27;20045;-74
2023/08/29 03:46:29;;;;;;;7.30;4.70;;;;;;;14.16;60.96;99002.56;5081312;27;20046;-76
2023/08/29 03:48:56;;;;;;;8.55;4.40;;;;;;;14.26;59.97;98999.00;5081159;27;20069;-74
2023/08/29 03:51:22;;;;;;;11.00;5.43;;;;;;;14.30;60.16;99008.44;5099191;27;20038;-75
2023/08/29 03:53:47;;;;;;;6.63;4.18;;;;;;;14.36;60.34;98997.09;5117411;27;20038;-73
2023/08/29 03:56:12;;;;;;;6.70;4.50;;;;;;;14.34;60.27;99009.81;5098503;27;20409;-73
2023/08/29 03:58:38;;;;;;;6.65;4.60;;;;;;;14.45;60.40;98986.34;5081480;27;20039;-74
2023/08/29 04:01:04;;;;;;;7.22;5.30;;;;;;;14.57;59.39;98995.03;5098415;27;20397;-74
2023/08/29 04:03:30;;;;;;;8.57;4.80;;;;;;;14.54;59.89;98998.03;5117175;27;20046;-73
2023/08/29 04:05:56;;;;;;;5.78;4.20;;;;;;;14.56;59.01;99003.25;5116814;27;20431;-74
2023/08/29 04:08:22;;;;;;;7.25;4.53;;;;;;;14.43;59.55;98987.53;5094974;27;20424;-72
2023/08/29 04:10:47;;;;;;;7.20;4.72;;;;;;;14.41;59.76;98984.16;5095208;27;20035;-74
2023/08/29 04:13:12;;;;;;;5.97;4.10;;;;;;;14.44;59.62;99006.16;5095497;27;20490;-73
2023/08/29 04:15:37;;;;;;;5.95;4.18;;;;;;;14.44;59.68;98983.84;5077271;27;20047;-73
2023/08/29 04:18:04;;;;;;;7.70;5.35;;;;;;;14.30;59.86;98984.31;5094853;27;20875;-74
2023/08/29 04:20:31;;;;;;;8.30;4.57;;;;;;;14.28;60.47;99000.53;5096033;27;20039;-73
2023/08/29 04:22:57;;;;;;;10.15;4.78;;;;;;;14.27;61.01;99004.22;5096353;27;20057;-73
2023/08/29 04:25:26;;;;;;;8.10;4.72;;;;;;;14.38;60.25;98989.75;5078178;27;20054;-74
2023/08/29 04:27:51;;;;;;;7.20;4.53;;;;;;;14.41;60.76;98990.34;5096580;27;20772;-73
2023/08/29 04:30:17;;;;;;;7.43;4.63;;;;;;;14.45;60.26;98985.50;5076795;27;20520;-73
2023/08/29 04:32:42;;;;;;;7.05;4.30;;;;;;;14.57;59.66;98984.31;5076432;27;20412;-72
2023/08/29 04:35:08;;;;;;;9.65;4.68;;;;;;;14.48;60.31;99001.31;5095337;27;20042;-73
2023/08/29 04:37:36;;;;;;;7.18;4.47;;;;;;;14.62;59.75;98994.59;5096371;27;20389;-73
2023/08/29 04:40:10;;;;;;;8.80;5.03;;;;;;;14.67;59.41;98995.81;5094390;27;20066;-74
2023/08/29 04:42:37;;;;;;;7.83;5.17;;;;;;;14.64;59.93;99000.66;5094662;27;20050;-72
2023/08/29 04:45:04;;;;;;;9.65;5.38;;;;;;;14.66;60.31;99026.34;5094762;27;20055;-74
2023/08/29 04:47:30;;;;;;;9.52;4.90;;;;;;;14.70;60.25;99005.41;5078176;27;20432;-73
2023/08/29 04:49:56;;;;;;;8.20;4.97;;;;;;;14.68;60.02;99002.88;5060280;27;20058;-74
2023/08/29 04:52:21;;;;;;;9.90;5.35;;;;;;;14.68;60.28;99008.25;5094558;27;20794;-75
2023/08/29 04:54:46;;;;;;;10.02;4.90;;;;;;;14.71;60.09;99013.31;5095172;27;20504;-74
2023/08/29 04:57:11;;;;;;;8.50;4.95;;;;;;;14.73;59.83;99014.00;5095790;27;20086;-77
2023/08/29 04:59:36;;;;;;;10.05;5.13;;;;;;;14.70;59.97;99016.16;5094557;27;20046;-73
2023/08/29 05:02:02;;;;;;;9.68;5.10;;;;;;;14.63;60.53;99023.97;5077409;27;20042;-74
2023/08/29 05:04:27;;;;;;;8.85;4.60;;;;;;;14.65;60.26;99023.81;5095220;27;20035;-73
2023/08/29 05:06:52;;;;;;;7.57;4.65;;;;;;;14.75;60.30;99020.06;5102418;27;20066;-73
2023/08/29 05:09:18;;;;;;;12.15;4.97;;;;;;;14.76;60.12;99027.13;5097638;27;20042;-74
2023/08/29 05:11:43;;;;;;;7.35;4.13;;;;;;;14.81;60.04;99007.88;5097691;27;20035;-74
2023/08/29 05:14:09;;;;;;;8.88;4.60;;;;;;;14.82;59.84;99002.38;5079662;27;20069;-74
2023/08/29 05:16:34;;;;;;;8.45;5.13;;;;;;;14.63;60.25;99012.38;5097150;27;20374;-71
2023/08/29 05:18:59;;;;;;;10.35;5.53;;;;;;;14.64;60.45;99027.50;5097199;27;20420;-70
2023/08/29 05:21:25;;;;;;;7.00;4.93;;;;;;;14.70;60.59;99019.66;5079829;27;20042;-72
2023/08/29 05:23:50;;;;;;;10.57;4.90;;;;;;;14.73;60.72;99014.00;5097055;27;20046;-71
2023/08/29 05:26:15;;;;;;;7.93;4.82;;;;;;;14.81;60.78;99014.09;5097240;27;20038;-70
2023/08/29 05:28:40;;;;;;;8.35;5.47;;;;;;;14.65;61.05;99027.34;5097011;27;20042;-69
2023/08/29 05:31:06;;;;;;;9.40;5.20;;;;;;;14.64;61.30;99006.88;5097265;27;20054;-70
2023/08/29 05:33:31;;;;;;;7.28;4.60;;;;;;;14.78;60.87;99000.16;5096489;27;20500;-70
2023/08/29 05:35:56;;;;;;;7.68;5.10;;;;;;;14.82;60.70;98998.84;5115351;27;20519;-71
2023/08/29 05:38:25;;;;;;;10.68;5.20;;;;;;;14.79;60.58;98999.97;5115496;27;20047;-71
2023/08/29 05:40:52;;;;;;;10.00;5.35;;;;;;;14.78;61.01;98987.59;5117290;27;20062;-70
2023/08/29 05:43:18;;;;;;;13.00;5.30;;;;;;;14.88;60.77;98993.72;5119564;27;20065;-72
2023/08/29 05:45:43;;;;;;;14.50;5.57;;;;;;;14.99;60.07;98998.00;5101241;27;20042;-71
2023/08/29 05:48:08;;;;;;;12.55;4.97;;;;;;;15.01;60.20;99013.97;5119578;27;20043;-71
2023/08/29 05:50:33;;;;;;;6.95;5.10;;;;;;;15.07;60.85;98991.88;5119389;27;20535;-72
2023/08/29 05:52:59;;;;;;;11.23;5.80;;;;;;;15.15;60.43;98986.56;5119506;27;20037;-72
2023/08/29 05:55:24;;;;;;;23.08;5.32;;;;;;;15.17;60.13;98981.88;5100261;27;20047;-71
2023/08/29 05:57:49;;;;;;;16.48;5.95;;;;;;;15.26;59.80;98987.16;5096716;27;20062;-71
2023/08/29 06:00:15;;;;;;;8.85;5.47;;;;;;;15.26;59.33;98991.69;5116013;27;20043;-71
2023/08/29 06:02:40;;;;;;;11.20;5.32;;;;;;;15.21;59.87;98992.19;5119504;27;20057;-71
2023/08/29 06:05:06;;;;;;;9.52;5.07;;;;;;;15.23;60.25;98997.41;5119564;27;20070;-72
2023/08/29 06:07:32;;;;;;;7.00;4.90;;;;;;;15.31;60.37;98999.31;5101169;27;20054;-73
2023/08/29 06:09:57;;;;;;;9.30;6.03;;;;;;;15.26;60.31;99013.19;5119379;27;20046;-74
2023/08/29 06:12:22;;;;;;;8.65;5.68;;;;;;;15.25;60.64;99009.66;5119042;27;20054;-74
2023/08/29 06:14:47;;;;;;;12.13;5.47;;;;;;;15.21;60.78;99005.59;5099907;27;20050;-73
2023/08/29 06:17:12;;;;;;;10.70;6.28;;;;;;;15.20;61.58;99003.06;5118923;27;20043;-72
2023/08/29 06:19:37;;;;;;;11.35;4.85;;;;;;;15.30;61.68;99035.19;5099889;27;20050;-73
2023/08/29 06:22:03;;;;;;;9.82;5.68;;;;;;;15.39;61.62;99008.25;5118981;27;20399;-72
2023/08/29 06:24:28;;;;;;;10.70;5.25;;;;;;;15.52;61.39;99007.84;5118937;27;20058;-73
2023/08/29 06:26:54;;;;;;;11.93;5.38;;;;;;;15.64;61.85;99005.78;5118842;27;20030;-73
2023/08/29 06:29:19;;;;;;;14.05;5.07;;;;;;;15.72;60.97;99014.75;5100658;27;20081;-75
2023/08/29 06:31:44;;;;;;;10.93;5.90;;;;;;;15.75;60.60;99013.59;5099684;27;20061;-74
2023/08/29 06:34:10;;;;;;;9.88;5.20;;;;;;;15.76;60.81;99028.72;5100864;27;20069;-74
2023/08/29 06:36:35;;;;;;;8.85;5.88;;;;;;;15.72;60.42;99008.53;5099498;27;20046;-73
2023/08/29 06:39:01;;;;;;;8.65;5.47;;;;;;;15.75;60.51;99017.13;5119146;27;20038;-74
2023/08/29 06:41:27;;;;;;;11.15;5.68;;;;;;;15.75;59.97;99045.84;5084244;27;20065;-73
2023/08/29 06:43:52;;;;;;;10.43;5.60;;;;;;;15.80;59.90;99025.53;5083152;27;20047;-72
2023/08/29 06:46:17;;;;;;;7.68;5.70;;;;;;;15.72;60.33;99030.88;5099721;27;20050;-74
2023/08/29 06:48:42;;;;;;;9.98;5.63;;;;;;;15.70;60.64;99032.03;5100437;27;20046;-72
2023/08/29 06:51:09;;;;;;;10.77;5.25;;;;;;;15.65;60.72;99045.09;5118801;27;20034;-72
2023/08/29 06:53:34;;;;;;;9.82;5.65;;;;;;;15.68;60.95;99040.28;5117699;27;20038;-72
2023/08/29 06:55:59;;;;;;;8.38;5.55;;;;;;;15.77;61.10;99039.31;5099585;27;20047;-72
2023/08/29 06:58:25;;;;;;;13.02;6.10;;;;;;;15.89;61.19;99027.31;5118213;27;20400;-73
2023/08/29 07:00:52;;;;;;;11.60;6.45;;;;;;;16.01;60.80;99035.94;5082550;27;20042;-74
2023/08/29 07:03:18;;;;;;;10.70;6.35;;;;;;;16.07;60.17;99034.47;5099662;27;20416;-73
2023/08/29 07:05:43;;;;;;;8.23;5.47;;;;;;;16.14;59.85;99046.28;5100088;27;20804;-71
2023/08/29 07:08:09;;;;;;;8.98;5.80;;;;;;;16.13;60.03;99029.31;5117995;27;20062;-75
2023/08/29 07:10:34;;;;;;;10.73;6.22;;;;;;;16.14;60.35;99036.34;5118005;27;20046;-72
2023/08/29 07:12:59;;;;;;;14.00;5.85;;;;;;;16.24;59.66;99037.09;5096063;27;20122;-74
2023/08/29 07:15:24;;;;;;;9.25;5.50;;;;;;;16.21;59.72;99053.53;5097574;27;20523;-73
2023/08/29 07:17:50;;;;;;;11.70;5.85;;;;;;;16.22;59.43;99033.72;5095731;27;20070;-75
2023/08/29 07:20:15;;;;;;;12.40;6.03;;;;;;;16.18;59.69;99037.72;5097943;27;20066;-75
2023/08/29 07:22:43;;;;;;;11.77;6.25;;;;;;;16.31;58.91;99037.28;5097500;27;20069;-75
2023/08/29 07:25:09;;;;;;;14.23;5.97;;;;;;;16.15;58.82;99048.78;5096676;27;20035;-74
2023/08/29 07:27:34;;;;;;;12.80;6.95;;;;;;;16.09;59.37;99033.31;5097410;27;20120;-75
2023/08/29 07:29:59;;;;;;;8.02;4.93;;;;;;;16.20;58.76;99030.34;5096142;27;20062;-72
2023/08/29 07:32:24;;;;;;;10.75;6.05;;;;;;;16.07;59.07;99031.78;5095141;27;20051;-73
2023/08/29 07:34:51;;;;;;;9.52;6.47;;;;;;;16.07;59.68;99034.47;5097594;27;20043;-74
2023/08/29 07:37:16;;;;;;;13.20;6.30;;;;;;;16.21;59.05;99029.34;5103482;27;20042;-74
2023/08/29 07:39:42;;;;;;;10.98;6.47;;;;;;;16.23;58.96;98997.75;5117916;27;20046;-74
2023/08/29 07:42:07;;;;;;;10.80;6.75;;;;;;;16.28;59.18;99043.81;5100181;27;20071;-73
2023/08/29 07:44:32;;;;;;;16.92;6.95;;;;;;;16.41;59.45;99031.78;5117690;27;20043;-73
2023/08/29 07:46:58;;;;;;;9.68;6.32;;;;;;;16.60;59.25;99026.13;5117206;27;20049;-73
2023/08/29 07:49:23;;;;;;;10.63;6.38;;;;;;;16.78;58.68;99029.59;5117460;27;20046;-75
2023/08/29 07:51:51;;;;;;;15.20;6.65;;;;;;;16.85;58.07;99001.00;5117740;27;20038;-75
2023/08/29 07:54:16;;;;;;;10.50;6.32;;;;;;;16.88;57.93;99027.59;5081584;27;20051;-74
2023/08/29 07:56:42;;;;;;;12.90;6.18;;;;;;;16.85;58.26;99033.31;5098735;27;20049;-73
2023/08/29 07:59:07;;;;;;;14.45;6.10;;;;;;;16.88;58.67;99057.22;5098837;27;20042;-73
2023/08/29 08:01:32;;;;;;;15.98;6.60;;;;;;;16.89;58.58;99058.91;5117020;27;20042;-74
2023/08/29 08:03:57;;;;;;;11.07;5.90;;;;;;;16.97;58.49;99050.84;5116895;27;20046;-73
2023/08/29 08:06:22;;;;;;;15.32;7.00;;;;;;;16.96;58.42;99037.53;5116764;27;20058;-73
2023/08/29 08:08:48;;;;;;;12.77;6.25;;;;;;;17.01;58.52;99036.06;5081352;27;20050;-75
2023/08/29 08:11:13;;;;;;;13.18;6.43;;;;;;;16.99;58.39;99038.06;5116926;27;20057;-73
2023/08/29 08:13:38;;;;;;;10.07;6.00;;;;;;;17.01;58.70;99033.38;5116972;27;20047;-73
2023/08/29 08:16:04;;;;;;;9.45;6.38;;;;;;;17.02;59.41;99036.91;5117125;27;20138;-76
2023/08/29 08:18:29;;;;;;;11.25;6.28;;;;;;;17.19;58.72;99037.75;5098517;27;20042;-75
2023/08/29 08:20:54;;;;;;;9.35;6.22;;;;;;;17.30;58.24;99050.91;5098588;27;20046;-73
2023/08/29 08:23:19;;;;;;;11.88;6.75;;;;;;;17.43;58.21;99052.09;5116989;27;20519;-75
2023/08/29 08:25:45;;;;;;;11.27;6.53;;;;;;;17.55;57.78;99033.75;5117015;27;20042;-75
2023/08/29 08:28:10;;;;;;;9.93;6.63;;;;;;;17.56;58.01;99043.53;5116750;27;20042;-73
2023/08/29 08:30:39;;;;;;;10.52;6.70;;;;;;;17.60;57.23;99039.50;5097716;27;20030;-75
2023/08/29 08:33:05;;;;;;;10.77;6.45;;;;;;;17.52;56.73;99038.63;5098798;27;20046;-74
2023/08/29 08:35:31;;;;;;;17.67;6.60;;;;;;;17.37;57.19;99041.16;5116558;27;20045;-74
2023/08/29 08:37:56;;;;;;;13.02;7.28;;;;;;;17.29;57.53;99046.53;5116679;27;20053;-74
2023/08/29 08:40:22;;;;;;;12.48;6.85;;;;;;;17.26;57.90;99049.56;5097151;27;20042;-73
2023/08/29 08:42:48;;;;;;;10.20;6.82;;;;;;;17.22;58.35;99048.22;5097921;27;20050;-74
2023/08/29 08:45:14;;;;;;;10.20;6.57;;;;;;;17.25;58.32;99032.56;5094621;27;20035;-75
2023/08/29 08:47:40;;;;;;;12.05;6.97;;;;;;;17.28;58.32;99047.53;5095810;27;20043;-74
2023/08/29 08:50:08;;;;;;;12.48;7.68;;;;;;;17.26;58.15;99028.88;5094727;27;20575;-74
2023/08/29 08:52:34;;;;;;;10.68;6.53;;;;;;;17.37;58.63;99041.16;5077531;27;20051;-72
2023/08/29 08:54:59;;;;;;;10.65;6.65;;;;;;;17.46;58.22;99055.47;5095685;27;20051;-75
2023/08/29 08:57:25;;;;;;;11.52;7.03;;;;;;;17.52;57.69;99039.47;5095775;27;20047;-74
2023/08/29 08:59:50;;;;;;;8.77;6.55;;;;;;;17.42;57.97;99023.47;5098305;27;21433;-74
2023/08/29 09:02:17;;;;;;;8.68;6.30;;;;;;;17.49;58.44;99034.44;5116412;27;20050;-75
2023/08/29 09:04:42;;;;;;;10.02;6.95;;;;;;;17.59;57.89;99061.22;5098132;27;20038;-73
2023/08/29 09:07:08;;;;;;;10.48;6.72;;;;;;;17.57;57.65;99026.34;5115757;27;20051;-73
2023/08/29 09:09:33;;;;;;;11.18;6.80;;;;;;;17.64;58.10;99027.38;5096503;27;20050;-74
2023/08/29 09:11:58;;;;;;;19.17;8.23;;;;;;;17.72;57.52;99040.81;5115921;27;20042;-74
2023/08/29 09:14:25;;;;;;;17.40;7.07;;;;;;;17.61;57.65;99033.06;5115680;27;20113;-73
2023/08/29 09:16:58;;;;;;;14.18;7.07;;;;;;;17.57;58.19;99031.72;5115476;27;20039;-74
2023/08/29 09:19:24;;;;;;;13.77;7.03;;;;;;;17.42;58.77;99034.25;5116154;27;20031;-74
2023/08/29 09:21:50;;;;;;;10.02;6.75;;;;;;;17.35;58.86;99049.41;5116280;27;20123;-73
2023/08/29 09:24:22;;;;;;;16.60;7.47;;;;;;;17.36;59.37;99039.47;5097764;27;20042;-75
2023/08/29 09:26:48;;;;;;;13.63;7.07;;;;;;;17.30;59.20;99029.34;5097396;27;20050;-74
2023/08/29 09:29:18;;;;;;;15.07;7.45;;;;;;;17.26;59.16;99044.19;5094409;28;20050;-74
2023/08/29 09:31:46;;;;;;;16.50;7.85;;;;;;;17.14;59.52;99034.75;5062481;27;20062;-76
2023/08/29 09:34:31;;;;;;;15.05;7.40;;;;;;;17.18;60.08;99036.91;5098049;27;20042;-74
2023/08/29 09:36:57;;;;;;;13.32;7.13;;;;;;;17.23;59.72;99044.50;5094698;28;20400;-73
2023/08/29 09:39:23;;;;;;;17.48;7.47;;;;;;;17.10;59.71;99034.22;5094501;28;20509;-72
2023/08/29 09:42:03;;;;;;;14.55;7.05;;;;;;;17.25;60.17;99042.50;5095074;28;20039;-74
2023/08/29 09:44:29;;;;;;;15.73;6.88;;;;;;;17.15;59.75;99039.97;5092987;27;20050;-72
2023/08/29 09:46:54;;;;;;;12.75;7.15;;;;;;;17.16;60.40;99043.47;5094225;27;20051;-73
2023/08/29 09:49:19;;;;;;;20.65;7.70;;;;;;;17.23;59.86;99033.72;5094493;28;20039;-72
2023/08/29 09:51:45;;;;;;;12.23;7.25;;;;;;;17.23;60.31;99034.56;5099001;27;20037;-74
2023/08/29 09:54:12;;;;;;;9.05;6.63;;;;;;;17.30;60.40;99030.19;5097772;27;20574;-74
2023/08/29 09:56:41;;;;;;;11.95;6.32;;;;;;;17.47;59.74;99024.81;5115782;27;20034;-75
2023/08/29 09:59:12;;;;;;;10.65;7.82;;;;;;;17.41;59.21;99026.31;5095834;27;20053;-73
2023/08/29 10:01:42;;;;;;;17.08;7.00;;;;;;;17.36;59.07;99028.69;5100452;27;20043;-75
2023/08/29 10:04:10;;;;;;;11.02;7.45;;;;;;;17.29;59.27;99043.81;5096814;27;20042;-75
2023/08/29 10:06:38;;;;;;;12.00;6.45;;;;;;;17.15;60.05;99036.44;5086673;28;20073;-75
2023/08/29 10:09:04;;;;;;;12.40;7.00;;;;;;;17.19;60.20;99048.53;5113384;27;20035;-75
2023/08/29 10:11:30;;;;;;;9.27;6.20;;;;;;;17.29;60.06;99065.38;5114647;27;20030;-76
2023/08/29 10:13:58;;;;;;;10.95;6.22;;;;;;;17.35;60.57;99064.72;5116238;27;20038;-76
2023/08/29 10:16:24;;;;;;;12.20;6.82;;;;;;;17.42;60.11;99044.19;5116284;27;20049;-76
2023/08/29 10:18:50;;;;;;;12.07;6.07;;;;;;;17.39;59.82;99025.66;5096648;27;20058;-73
2023/08/29 10:21:17;;;;;;;13.13;6.63;;;;;;;17.43;59.80;99067.44;5115082;27;20524;-74
2023/08/29 10:23:43;;;;;;;12.95;6.93;;;;;;;17.52;60.28;99050.25;5114821;27;20042;-74
2023/08/29 10:26:09;;;;;;;11.60;6.30;;;;;;;17.52;59.95;99061.03;5096789;27;20042;-75
2023/08/29 10:28:36;;;;;;;9.95;5.80;;;;;;;17.57;59.84;99053.28;5101220;27;20042;-75
2023/08/29 10:31:05;;;;;;;10.02;6.88;;;;;;;17.55;60.04;99047.22;5100173;27;20050;-75
2023/08/29 10:33:31;;;;;;;13.73;6.18;;;;;;;17.63;59.29;99047.25;5118432;27;20054;-73
2023/08/29 10:35:57;;;;;;;11.85;6.15;;;;;;;17.51;59.72;99048.56;5082188;27;20034;-75
2023/08/29 10:38:25;;;;;;;11.10;6.05;;;;;;;17.51;60.42;99053.94;5078709;27;20043;-76
2023/08/29 10:41:02;;;;;;;11.73;7.18;;;;;;;17.65;59.61;99055.16;5113868;27;20042;-74
2023/08/29 10:43:28;;;;;;;14.43;6.50;;;;;;;17.50;59.63;99051.41;5097599;27;20404;-74
2023/08/29 10:45:56;;;;;;;11.38;6.53;;;;;;;17.45;59.27;99054.63;5099805;27;20034;-75
2023/08/29 10:48:30;;;;;;;12.82;6.45;;;;;;;17.45;59.32;99057.31;5100489;27;20038;-74
2023/08/29 10:51:09;;;;;;;13.23;6.78;;;;;;;17.31;60.04;99063.38;5115406;27;20030;-74
2023/08/29 10:53:43;;;;;;;11.23;6.50;;;;;;;17.19;60.24;99068.22;5082174;27;20055;-76
2023/08/29 10:56:09;;;;;;;14.48;6.85;;;;;;;17.11;60.30;99072.75;5099586;27;20425;-76
2023/08/29 10:58:38;;;;;;;11.02;6.32;;;;;;;17.07;60.67;99093.78;5118651;27;20124;-75
2023/08/29 11:01:08;;;;;;;14.05;6.75;;;;;;;17.11;60.75;99072.75;5095748;27;20039;-76
2023/08/29 11:03:39;;;;;;;12.32;6.30;;;;;;;17.21;60.72;99073.47;5117855;27;20057;-74
2023/08/29 11:06:04;;;;;;;14.50;7.20;;;;;;;17.16;60.62;99041.63;5099431;27;20042;-76
2023/08/29 11:08:29;;;;;;;15.55;7.63;;;;;;;17.13;60.69;99066.22;5099231;27;20050;-76
2023/08/29 11:11:15;;;;;;;15.80;6.80;;;;;;;17.31;60.83;99058.81;5062715;27;20161;-76
2023/08/29 11:13:56;;;;;;;15.10;6.05;;;;;;;17.31;60.77;99072.28;5095814;27;20489;-76
2023/08/29 11:16:21;;;;;;;10.30;6.38;;;;;;;17.25;60.88;99058.66;5118276;27;20050;-75
2023/08/29 11:18:49;;;;;;;10.75;6.20;;;;;;;17.21;61.22;99062.69;5099307;27;20046;-76
2023/08/29 11:21:16;;;;;;;10.07;6.40;;;;;;;17.18;61.41;99090.78;5118058;27;20046;-75
2023/08/29 11:23:43;;;;;;;13.63;8.82;;;;;;;17.25;60.93;99064.03;5117730;27;20085;-74
2023/08/29 11:26:09;;;;;;;9.32;6.22;;;;;;;17.36;60.04;99078.03;5117726;27;20038;-75